Powells Store, North Carolina
Current Conditions -  °F | °C
As of 2:53 PM on Saturday 20 Dec 2014 (Local Time) from KDAN Reporting Station
Overcast Overcast  
Wind Chill: 40°   Ceiling: 7000
Heat Index: 40°   Visibility: 10mi
Dew Point: 27°   Wind: 0mph
Humidity: 60%   Direction: NA
Pressure: 30.24"   Gusts: NA
Location:  36.4355°N, 79.5464°W
Report Text: KDAN 201953Z AUTO 00000KT 10SM BKN070 OVC095 04/M03 A3024 RMK AO2 SLP236 T00441028
Loading
Personal Weather Stations






























Interactive Weather Map New forecast layout! Learn more

10-Day Weather Forecast

Advertisements
Track Severe Weather on mobile